Castlebar Airport

Jump to: basic info | weather | comments

Related pages: nearby airports | nearby navaids | notams | map

Basic information (top)

Codes: CLB EICB
Location: lon 53.848400, lat -9.280370
Status: small_airport

Weather (top)

Current conditions for Ireland West Knock Airport 17nm (31km) ENE (rec'd 2015/02/26 19:00Z):

EIKN 261900Z 23009KT 9999 FEW020CB SCT040 01/01 Q1013 NOSIG

Airport forecast for Ireland West Knock Airport 17nm (31km) ENE (rec'd 2015/02/26 00:24Z):

TAF EIKN 262300Z 2700/2724 26016G27KT 9999 SCT020 
      TEMPO 2700/2703 4000 -SHRASN SCT003 BKN007 SCT017CB 
      BECMG 2701/2703 26010KT 
      BECMG 2704/2707 20008KT 
      BECMG 2710/2712 21016G27KT 
      BECMG 2714/2717 18023G38KT 4000 -RA BKN008 
      TEMPO 2716/2723 1500 RADZ SCT002 BKN004 
      BECMG 2721/2724 24015KT 9999 NSW SCT010 BKN020

Latest comments (top)

No longer exists.: This airport was closed in 2001 and the ... [read]

fv: fg [read]

More... (top)

See also NOTAMs and nearby airports and navaids, or visit the Castlebar Airport page at the main OurAirports website..